createdAt,value
2018-08-06T00:00:36.960Z,0.00
2018-08-06T00:01:36.988Z,0.00
2018-08-06T00:02:37.016Z,0.00
2018-08-06T00:03:37.045Z,0.00
2018-08-06T00:04:37.070Z,0.00
2018-08-06T00:05:37.098Z,0.00
2018-08-06T00:06:37.130Z,0.00
2018-08-06T00:07:37.154Z,0.00
2018-08-06T00:08:37.181Z,0.00
2018-08-06T00:09:37.208Z,0.00
2018-08-06T00:10:37.236Z,0.00
2018-08-06T00:11:37.283Z,0.00
2018-08-06T00:12:37.292Z,0.00
2018-08-06T00:13:37.349Z,0.00
2018-08-06T00:14:37.347Z,0.00
2018-08-06T00:15:37.375Z,0.00
2018-08-06T00:16:37.402Z,0.00
2018-08-06T00:17:37.430Z,0.00
2018-08-06T00:18:37.492Z,0.00
2018-08-06T00:19:37.486Z,0.00
2018-08-06T00:20:37.513Z,0.00
2018-08-06T00:21:37.539Z,0.00
2018-08-06T00:22:37.568Z,0.00
2018-08-06T00:23:37.596Z,0.00
2018-08-06T00:24:37.623Z,0.00
2018-08-06T00:25:37.650Z,0.00
2018-08-06T00:26:37.679Z,0.00
2018-08-06T00:27:37.706Z,0.00
2018-08-06T00:28:37.733Z,0.00
2018-08-06T00:29:37.838Z,0.00
2018-08-06T00:30:37.789Z,0.00
2018-08-06T00:31:37.817Z,0.00
2018-08-06T00:32:37.843Z,0.00
2018-08-06T00:33:37.871Z,0.00
2018-08-06T00:34:37.899Z,0.00
2018-08-06T00:35:37.927Z,0.00
2018-08-06T00:36:37.953Z,0.00
2018-08-06T00:37:38.019Z,0.00
2018-08-06T00:38:38.010Z,0.00
2018-08-06T00:39:38.037Z,0.00
2018-08-06T00:40:38.064Z,0.00
2018-08-06T00:41:38.092Z,0.00
2018-08-06T00:42:38.119Z,0.00
2018-08-06T00:43:38.160Z,0.00
2018-08-06T00:44:38.177Z,0.00
2018-08-06T00:45:38.207Z,0.00
2018-08-06T00:46:38.230Z,0.00
2018-08-06T00:47:38.258Z,0.00
2018-08-06T00:48:38.288Z,0.00
2018-08-06T00:49:38.312Z,0.00
2018-08-06T00:50:38.340Z,0.00
2018-08-06T00:51:38.368Z,0.00
2018-08-06T00:52:38.395Z,0.00
2018-08-06T00:53:38.425Z,0.00
2018-08-06T00:54:38.450Z,0.00
2018-08-06T00:55:38.478Z,0.00
2018-08-06T00:56:38.528Z,0.00
2018-08-06T00:57:38.532Z,0.00
2018-08-06T00:58:38.561Z,0.00
2018-08-06T00:59:38.590Z,0.00
2018-08-06T01:00:38.615Z,0.00
2018-08-06T01:01:38.643Z,0.00
2018-08-06T01:02:38.677Z,0.00
2018-08-06T01:03:38.698Z,0.00
2018-08-06T01:04:38.725Z,0.00
2018-08-06T01:05:38.753Z,0.00
2018-08-06T01:06:38.781Z,0.00
2018-08-06T01:07:38.812Z,0.00
2018-08-06T01:08:38.835Z,0.00
2018-08-06T01:09:38.863Z,0.00
2018-08-06T01:10:38.891Z,0.00
2018-08-06T01:11:38.918Z,0.00
2018-08-06T01:12:38.959Z,0.00
2018-08-06T01:13:38.973Z,0.00
2018-08-06T01:14:39.038Z,0.00
2018-08-06T01:15:39.029Z,0.00
2018-08-06T01:16:39.056Z,0.00
2018-08-06T01:17:39.083Z,0.00
2018-08-06T01:18:39.111Z,0.00
2018-08-06T01:19:39.149Z,0.00
2018-08-06T01:20:39.166Z,0.00
2018-08-06T01:21:39.193Z,0.00
2018-08-06T01:22:39.221Z,0.00
2018-08-06T01:23:39.249Z,0.00
2018-08-06T01:24:39.289Z,0.00
2018-08-06T01:25:39.341Z,0.00
2018-08-06T01:26:39.331Z,0.00
2018-08-06T01:27:39.358Z,0.00
2018-08-06T01:28:39.386Z,0.00
2018-08-06T01:29:39.416Z,0.00
2018-08-06T01:30:39.441Z,0.00
2018-08-06T01:31:39.470Z,0.00
2018-08-06T01:32:39.495Z,0.00
2018-08-06T01:33:39.560Z,0.00
2018-08-06T01:34:39.552Z,0.00
2018-08-06T01:35:39.579Z,0.00
2018-08-06T01:36:39.606Z,0.00
2018-08-06T01:37:39.633Z,0.00
2018-08-06T01:38:39.661Z,0.00
2018-08-06T01:39:39.689Z,0.00
2018-08-06T01:40:39.716Z,0.00
2018-08-06T01:41:39.743Z,0.00
2018-08-06T01:42:39.773Z,0.00
2018-08-06T01:43:39.803Z,0.00
2018-08-06T01:44:39.839Z,0.00
2018-08-06T01:45:39.860Z,0.00
2018-08-06T01:46:39.881Z,0.00
2018-08-06T01:47:39.946Z,0.00
2018-08-06T01:48:39.936Z,0.00
2018-08-06T01:49:39.963Z,0.00
2018-08-06T01:50:39.991Z,0.00
2018-08-06T01:51:40.030Z,0.00
2018-08-06T01:52:40.077Z,0.00
2018-08-06T01:53:40.074Z,0.00
2018-08-06T01:54:40.101Z,0.00
2018-08-06T01:55:40.129Z,0.00
2018-08-06T01:56:40.156Z,0.00
2018-08-06T01:57:40.183Z,0.00
2018-08-06T01:58:40.211Z,0.00
2018-08-06T01:59:40.249Z,0.00
2018-08-06T02:00:40.265Z,0.00
2018-08-06T02:01:40.294Z,0.00
2018-08-06T02:02:40.322Z,0.00
2018-08-06T02:03:40.349Z,0.00
2018-08-06T02:04:40.375Z,0.00
2018-08-06T02:05:40.402Z,0.00
2018-08-06T02:06:40.460Z,0.00
2018-08-06T02:07:40.459Z,0.00
2018-08-06T02:08:40.485Z,0.00
2018-08-06T02:09:40.516Z,0.00
2018-08-06T02:10:40.540Z,0.00
2018-08-06T02:11:40.568Z,0.00
2018-08-06T02:12:40.594Z,0.00
2018-08-06T02:13:40.641Z,0.00
2018-08-06T02:14:40.650Z,0.00
2018-08-06T02:15:40.678Z,0.00
2018-08-06T02:16:40.705Z,0.00
2018-08-06T02:17:40.744Z,0.00
2018-08-06T02:18:40.760Z,0.00
2018-08-06T02:19:40.787Z,0.00
2018-08-06T02:20:40.815Z,0.00
2018-08-06T02:21:40.843Z,0.00
2018-08-06T02:22:40.869Z,0.00
2018-08-06T02:23:40.897Z,0.00
2018-08-06T02:24:40.946Z,0.00
2018-08-06T02:25:40.951Z,0.00
2018-08-06T02:26:40.979Z,0.00
2018-08-06T02:27:41.007Z,0.00
2018-08-06T02:28:41.035Z,0.00
2018-08-06T02:29:41.061Z,0.00
2018-08-06T02:30:41.097Z,5.63
2018-08-06T02:31:41.117Z,5.63
2018-08-06T02:32:41.144Z,5.63
2018-08-06T02:33:41.172Z,5.63
2018-08-06T02:34:41.200Z,5.63
2018-08-06T02:35:41.227Z,5.63
2018-08-06T02:36:41.253Z,11.25
2018-08-06T02:37:41.281Z,11.25
2018-08-06T02:38:41.312Z,11.25
2018-08-06T02:39:41.337Z,11.25
2018-08-06T02:40:41.364Z,11.25
2018-08-06T02:41:41.391Z,11.25
2018-08-06T02:42:41.420Z,11.25
2018-08-06T02:43:41.447Z,11.25
2018-08-06T02:44:41.511Z,16.88
2018-08-06T02:45:41.501Z,16.88
2018-08-06T02:46:41.529Z,16.88
2018-08-06T02:47:41.556Z,16.88
2018-08-06T02:48:41.584Z,16.88
2018-08-06T02:49:41.611Z,16.88
2018-08-06T02:50:41.639Z,16.88
2018-08-06T02:51:41.688Z,16.88
2018-08-06T02:52:41.695Z,16.88
2018-08-06T02:53:41.720Z,22.50
2018-08-06T02:54:41.748Z,22.50
2018-08-06T02:55:41.776Z,22.50
2018-08-06T02:56:41.823Z,22.50
2018-08-06T02:57:41.833Z,22.50
2018-08-06T02:58:41.859Z,22.50
2018-08-06T02:59:41.886Z,22.50
2018-08-06T03:00:41.914Z,22.50
2018-08-06T03:01:41.941Z,22.50
2018-08-06T03:02:41.969Z,22.50
2018-08-06T03:03:41.996Z,22.50
2018-08-06T03:04:42.024Z,22.50
2018-08-06T03:05:42.054Z,22.50
2018-08-06T03:06:42.079Z,22.50
2018-08-06T03:07:42.106Z,22.50
2018-08-06T03:08:42.134Z,22.50
2018-08-06T03:09:42.161Z,22.50
2018-08-06T03:10:42.190Z,22.50
2018-08-06T03:11:42.218Z,28.13
2018-08-06T03:12:42.243Z,28.13
2018-08-06T03:13:42.271Z,28.13
2018-08-06T03:14:42.333Z,22.50
2018-08-06T03:15:42.330Z,22.50
2018-08-06T03:16:42.355Z,22.50
2018-08-06T03:17:42.382Z,16.88
2018-08-06T03:18:42.410Z,16.88
2018-08-06T03:19:42.438Z,11.25
2018-08-06T03:20:42.464Z,11.25
2018-08-06T03:21:42.493Z,5.63
2018-08-06T03:22:42.520Z,5.63
2018-08-06T03:23:42.549Z,5.63
2018-08-06T03:24:42.575Z,5.63
2018-08-06T03:25:42.602Z,11.25
2018-08-06T03:26:42.646Z,11.25
2018-08-06T03:27:42.659Z,11.25
2018-08-06T03:28:42.685Z,11.25
2018-08-06T03:29:42.725Z,11.25
2018-08-06T03:30:42.746Z,11.25
2018-08-06T03:31:42.769Z,11.25
2018-08-06T03:32:42.798Z,11.25
2018-08-06T03:33:42.823Z,11.25
2018-08-06T03:34:42.852Z,11.25
2018-08-06T03:35:42.879Z,5.63
2018-08-06T03:36:42.906Z,5.63
2018-08-06T03:37:42.933Z,5.63
2018-08-06T03:38:42.961Z,5.63
2018-08-06T03:39:42.990Z,5.63
2018-08-06T03:40:43.017Z,5.63
2018-08-06T03:41:43.044Z,11.25
2018-08-06T03:42:43.072Z,11.25
2018-08-06T03:43:43.100Z,11.25
2018-08-06T03:44:43.126Z,11.25
2018-08-06T03:45:43.155Z,11.25
2018-08-06T03:46:43.182Z,11.25
2018-08-06T03:47:43.218Z,11.25
2018-08-06T03:48:43.237Z,11.25
2018-08-06T03:49:43.265Z,11.25
2018-08-06T03:50:43.293Z,11.25
2018-08-06T03:51:43.320Z,16.88
2018-08-06T03:52:43.383Z,22.50
2018-08-06T03:53:43.375Z,22.50
2018-08-06T03:54:43.404Z,16.88
2018-08-06T03:55:43.431Z,16.88
2018-08-06T03:56:43.457Z,11.25
2018-08-06T03:57:43.485Z,16.88
2018-08-06T03:58:43.513Z,16.88
2018-08-06T03:59:43.541Z,28.13
2018-08-06T04:00:43.569Z,39.38
2018-08-06T04:01:43.595Z,39.38
2018-08-06T04:02:43.623Z,39.38
2018-08-06T04:03:43.651Z,45.00
2018-08-06T04:04:43.703Z,50.63
2018-08-06T04:05:43.744Z,33.75
2018-08-06T04:06:43.734Z,50.63
2018-08-06T04:07:43.762Z,33.75
2018-08-06T04:08:43.805Z,33.75
2018-08-06T04:09:43.820Z,5.63
2018-08-06T04:10:43.871Z,5.63
2018-08-06T04:11:43.873Z,28.13
2018-08-06T04:12:43.903Z,22.50
2018-08-06T04:13:43.927Z,16.88
2018-08-06T04:14:43.981Z,33.75
2018-08-06T04:15:43.983Z,16.88
2018-08-06T04:16:44.010Z,22.50
2018-08-06T04:17:44.038Z,22.50
2018-08-06T04:18:44.067Z,22.50
2018-08-06T04:19:44.118Z,11.25
2018-08-06T04:20:44.121Z,11.25
2018-08-06T04:21:44.149Z,11.25
2018-08-06T04:22:44.178Z,11.25
2018-08-06T04:23:44.205Z,11.25
2018-08-06T04:24:44.231Z,5.63
2018-08-06T04:25:44.259Z,11.25
2018-08-06T04:26:44.288Z,5.63
2018-08-06T04:27:44.316Z,5.63
2018-08-06T04:28:44.341Z,5.63
2018-08-06T04:29:44.372Z,5.63
2018-08-06T04:30:44.398Z,5.63
2018-08-06T04:31:44.463Z,11.25
2018-08-06T04:32:44.514Z,5.63
2018-08-06T04:33:44.481Z,5.63
2018-08-06T04:34:44.509Z,5.63
2018-08-06T04:35:44.540Z,5.63
2018-08-06T04:36:44.564Z,11.25
2018-08-06T04:37:44.596Z,11.25
2018-08-06T04:38:44.619Z,11.25
2018-08-06T04:39:44.647Z,5.63
2018-08-06T04:40:44.674Z,5.63
2018-08-06T04:41:44.705Z,11.25
2018-08-06T04:42:44.730Z,11.25
2018-08-06T04:43:44.757Z,11.25
2018-08-06T04:44:44.784Z,5.63
2018-08-06T04:45:44.812Z,5.63
2018-08-06T04:46:44.840Z,5.63
2018-08-06T04:47:44.867Z,5.63
2018-08-06T04:48:44.894Z,5.63
2018-08-06T04:49:44.923Z,5.63
2018-08-06T04:50:44.951Z,5.63
2018-08-06T04:51:44.978Z,5.63
2018-08-06T04:52:45.010Z,5.63
2018-08-06T04:53:45.033Z,5.63
2018-08-06T04:54:45.066Z,5.63
2018-08-06T04:55:45.089Z,5.63
2018-08-06T04:56:45.115Z,5.63
2018-08-06T04:57:45.146Z,5.63
2018-08-06T04:58:45.172Z,5.63
2018-08-06T04:59:45.261Z,11.25
2018-08-06T05:00:45.226Z,11.25
2018-08-06T05:01:45.287Z,5.63
2018-08-06T05:02:45.285Z,5.63
2018-08-06T05:03:45.309Z,5.63
2018-08-06T05:04:45.336Z,5.63
2018-08-06T05:05:45.364Z,11.25
2018-08-06T05:06:45.396Z,11.25
2018-08-06T05:07:45.420Z,5.63
2018-08-06T05:08:45.452Z,5.63
2018-08-06T05:09:45.502Z,5.63
2018-08-06T05:10:45.502Z,5.63
2018-08-06T05:11:45.530Z,5.63
2018-08-06T05:12:45.560Z,5.63
2018-08-06T05:13:45.631Z,5.63
2018-08-06T05:14:45.613Z,5.63
2018-08-06T05:15:45.642Z,5.63
2018-08-06T05:16:45.667Z,5.63
2018-08-06T05:17:45.695Z,5.63
2018-08-06T05:18:45.727Z,5.63
2018-08-06T05:19:45.751Z,5.63
2018-08-06T05:20:45.778Z,5.63
2018-08-06T05:21:45.806Z,5.63
2018-08-06T05:22:45.833Z,5.63
2018-08-06T05:23:45.862Z,5.63
2018-08-06T05:24:45.917Z,5.63
2018-08-06T05:25:45.916Z,5.63
2018-08-06T05:26:45.944Z,5.63
2018-08-06T05:27:45.973Z,5.63
2018-08-06T05:28:46.040Z,0.00
2018-08-06T05:29:46.027Z,0.00
2018-08-06T05:30:46.055Z,0.00
2018-08-06T05:31:46.082Z,0.00
2018-08-06T05:32:46.145Z,0.00
2018-08-06T05:33:46.137Z,5.63
2018-08-06T05:34:46.166Z,5.63
2018-08-06T05:35:46.199Z,0.00
2018-08-06T05:36:46.219Z,0.00
2018-08-06T05:37:46.246Z,0.00
2018-08-06T05:38:46.274Z,0.00
2018-08-06T05:39:46.302Z,0.00
2018-08-06T05:40:46.329Z,0.00
2018-08-06T05:41:46.357Z,0.00
2018-08-06T05:42:46.384Z,5.63
2018-08-06T05:43:46.413Z,5.63
2018-08-06T05:44:46.440Z,0.00
2018-08-06T05:45:46.468Z,5.63
2018-08-06T05:46:46.495Z,5.63
2018-08-06T05:47:46.523Z,5.63
2018-08-06T05:48:46.550Z,5.63
2018-08-06T05:49:46.578Z,5.63
2018-08-06T05:50:46.609Z,5.63
2018-08-06T05:51:46.636Z,5.63
2018-08-06T05:52:46.659Z,5.63
2018-08-06T05:53:46.688Z,5.63
2018-08-06T05:54:46.729Z,0.00
2018-08-06T05:55:46.757Z,0.00
2018-08-06T05:56:46.770Z,0.00
2018-08-06T05:57:46.798Z,0.00
2018-08-06T05:58:46.826Z,0.00
2018-08-06T05:59:46.854Z,0.00
2018-08-06T06:00:46.881Z,0.00
2018-08-06T06:01:46.909Z,0.00
2018-08-06T06:02:46.943Z,0.00
2018-08-06T06:03:47.004Z,0.00
2018-08-06T06:04:46.992Z,0.00
2018-08-06T06:05:47.018Z,0.00
2018-08-06T06:06:47.048Z,0.00
2018-08-06T06:07:47.124Z,0.00
2018-08-06T06:08:47.101Z,0.00
2018-08-06T06:09:47.133Z,0.00
2018-08-06T06:10:47.157Z,0.00
2018-08-06T06:11:47.185Z,0.00
2018-08-06T06:12:47.217Z,0.00
2018-08-06T06:13:47.240Z,0.00
2018-08-06T06:14:47.267Z,0.00
2018-08-06T06:15:47.295Z,0.00
2018-08-06T06:16:47.322Z,5.63
2018-08-06T06:17:47.350Z,5.63
2018-08-06T06:18:47.378Z,5.63
2018-08-06T06:19:47.437Z,5.63
2018-08-06T06:20:47.432Z,11.25
2018-08-06T06:21:47.460Z,11.25
2018-08-06T06:22:47.488Z,22.50
2018-08-06T06:23:47.515Z,22.50
2018-08-06T06:24:47.541Z,16.88
2018-08-06T06:25:47.576Z,22.50
2018-08-06T06:26:47.600Z,11.25
2018-08-06T06:27:47.668Z,11.25
2018-08-06T06:28:47.652Z,22.50
2018-08-06T06:29:47.681Z,22.50
2018-08-06T06:30:47.707Z,22.50
2018-08-06T06:31:47.736Z,22.50
2018-08-06T06:32:47.762Z,22.50
2018-08-06T06:33:47.817Z,22.50
2018-08-06T06:34:47.868Z,22.50
2018-08-06T06:35:47.845Z,22.50
2018-08-06T06:36:47.871Z,16.88
2018-08-06T06:37:47.899Z,16.88
2018-08-06T06:38:47.927Z,16.88
2018-08-06T06:39:47.963Z,16.88
2018-08-06T06:40:48.007Z,22.50
2018-08-06T06:41:48.140Z,22.50
2018-08-06T06:42:48.039Z,22.50
2018-08-06T06:43:48.065Z,16.88
2018-08-06T06:44:48.128Z,16.88
2018-08-06T06:45:48.121Z,16.88
2018-08-06T06:46:48.147Z,11.25
2018-08-06T06:47:48.175Z,11.25
2018-08-06T06:48:48.236Z,11.25
2018-08-06T06:49:48.229Z,11.25
2018-08-06T06:50:48.258Z,11.25
2018-08-06T06:51:48.287Z,11.25
2018-08-06T06:52:48.311Z,16.88
2018-08-06T06:53:49.274Z,11.25
2018-08-06T06:54:48.367Z,11.25
2018-08-06T06:55:48.394Z,11.25
2018-08-06T06:56:48.422Z,11.25
2018-08-06T06:57:48.450Z,11.25
2018-08-06T06:58:48.476Z,11.25
2018-08-06T06:59:48.506Z,11.25
2018-08-06T07:00:48.558Z,11.25
2018-08-06T07:01:48.587Z,5.63
2018-08-06T07:02:48.588Z,11.25
2018-08-06T07:03:48.614Z,5.63
2018-08-06T07:04:48.640Z,5.63
2018-08-06T07:05:48.669Z,5.63
2018-08-06T07:06:48.744Z,5.63
2018-08-06T07:07:48.727Z,5.63
2018-08-06T07:08:48.752Z,5.63
2018-08-06T07:09:48.779Z,5.63
2018-08-06T07:10:48.805Z,5.63
2018-08-06T07:11:48.833Z,5.63
2018-08-06T07:12:48.859Z,11.25
2018-08-06T07:13:48.985Z,11.25
2018-08-06T07:14:48.928Z,11.25
2018-08-06T07:15:48.980Z,11.25
2018-08-06T07:16:48.972Z,11.25
2018-08-06T07:17:48.998Z,11.25
2018-08-06T07:18:49.025Z,11.25
2018-08-06T07:19:49.052Z,11.25
2018-08-06T07:20:49.081Z,11.25
2018-08-06T07:21:49.107Z,11.25
2018-08-06T07:22:49.134Z,11.25
2018-08-06T07:23:49.166Z,11.25
2018-08-06T07:24:49.187Z,11.25
2018-08-06T07:25:49.217Z,11.25
2018-08-06T07:26:49.243Z,11.25
2018-08-06T07:27:49.273Z,11.25
2018-08-06T07:28:49.299Z,11.25
2018-08-06T07:29:49.325Z,11.25
2018-08-06T07:30:49.353Z,11.25
2018-08-06T07:31:49.380Z,11.25
2018-08-06T07:32:49.407Z,11.25
2018-08-06T07:33:49.501Z,11.25
2018-08-06T07:34:49.484Z,11.25
2018-08-06T07:35:49.490Z,11.25
2018-08-06T07:36:49.556Z,11.25
2018-08-06T07:37:49.546Z,11.25
2018-08-06T07:38:50.300Z,0.00
2018-08-06T07:39:49.599Z,5.63
2018-08-06T07:40:49.629Z,5.63
2018-08-06T07:41:49.653Z,5.63
2018-08-06T07:42:49.682Z,5.63
2018-08-06T07:43:49.708Z,5.63
2018-08-06T07:44:49.735Z,5.63
2018-08-06T07:45:49.763Z,5.63
2018-08-06T07:46:49.790Z,5.63
2018-08-06T07:47:49.818Z,5.63
2018-08-06T07:48:49.846Z,5.63
2018-08-06T07:49:49.932Z,5.63
2018-08-06T07:50:49.908Z,5.63
2018-08-06T07:51:49.928Z,5.63
2018-08-06T07:52:49.954Z,5.63
2018-08-06T07:53:49.983Z,5.63
2018-08-06T07:54:50.009Z,5.63
2018-08-06T07:55:50.037Z,5.63
2018-08-06T07:56:50.063Z,5.63
2018-08-06T07:57:50.092Z,5.63
2018-08-06T07:58:50.135Z,5.63
2018-08-06T07:59:50.232Z,5.63
2018-08-06T08:00:50.177Z,5.63
2018-08-06T08:01:50.201Z,5.63
2018-08-06T08:02:50.227Z,5.63
2018-08-06T08:03:50.258Z,5.63
2018-08-06T08:04:50.283Z,5.63
2018-08-06T08:05:50.309Z,5.63
2018-08-06T08:06:50.339Z,5.63
2018-08-06T08:07:50.365Z,5.63
2018-08-06T08:08:50.391Z,0.00
2018-08-06T08:09:50.420Z,0.00
2018-08-06T08:10:50.446Z,0.00
2018-08-06T08:11:50.478Z,0.00
2018-08-06T08:12:50.532Z,0.00
2018-08-06T08:13:50.528Z,0.00
2018-08-06T08:14:50.555Z,0.00
2018-08-06T08:15:50.584Z,5.63
2018-08-06T08:16:50.611Z,5.63
2018-08-06T08:17:50.638Z,5.63
2018-08-06T08:18:50.665Z,5.63
2018-08-06T08:19:50.741Z,5.63
2018-08-06T08:20:50.720Z,5.63
2018-08-06T08:21:50.747Z,5.63
2018-08-06T08:22:50.774Z,5.63
2018-08-06T08:23:50.802Z,5.63
2018-08-06T08:24:50.874Z,5.63
2018-08-06T08:25:50.857Z,11.25
2018-08-06T08:26:50.884Z,5.63
2018-08-06T08:27:50.942Z,5.63
2018-08-06T08:28:50.938Z,11.25
2018-08-06T08:29:50.967Z,11.25
2018-08-06T08:30:51.037Z,5.63
2018-08-06T08:31:51.024Z,5.63
2018-08-06T08:32:51.055Z,5.63
2018-08-06T08:33:51.126Z,0.00
2018-08-06T08:34:51.103Z,0.00
2018-08-06T08:35:51.132Z,0.00
2018-08-06T08:36:51.157Z,0.00
2018-08-06T08:37:51.185Z,0.00
2018-08-06T08:38:51.213Z,0.00
2018-08-06T08:39:51.240Z,0.00
2018-08-06T08:40:51.297Z,0.00
2018-08-06T08:41:51.295Z,0.00
2018-08-06T08:42:51.322Z,0.00
2018-08-06T08:43:51.350Z,0.00
2018-08-06T08:44:51.376Z,5.63
2018-08-06T08:45:51.447Z,5.63
2018-08-06T08:46:51.432Z,5.63
2018-08-06T08:47:57.190Z,11.25
2018-08-06T08:48:57.158Z,11.25
2018-08-06T08:50:50.126Z,11.25
2018-08-06T08:51:50.093Z,11.25
2018-08-06T08:53:43.012Z,11.25
2018-08-06T08:54:42.991Z,11.25
2018-08-06T08:56:35.888Z,11.25
2018-08-06T08:57:35.907Z,5.63
2018-08-06T08:59:28.857Z,5.63
2018-08-06T09:00:28.853Z,5.63
2018-08-06T09:02:21.996Z,5.63
2018-08-06T09:03:21.975Z,5.63
2018-08-06T09:05:14.891Z,5.63
2018-08-06T09:06:14.892Z,5.63
2018-08-06T09:08:07.808Z,5.63
2018-08-06T09:09:07.809Z,5.63
2018-08-06T09:11:00.703Z,5.63
2018-08-06T09:12:00.727Z,5.63
2018-08-06T09:13:53.663Z,5.63
2018-08-06T09:14:53.640Z,5.63
2018-08-06T09:16:46.562Z,11.25
2018-08-06T09:17:46.561Z,11.25
2018-08-06T09:19:39.457Z,5.63
2018-08-06T09:20:39.477Z,5.63
2018-08-06T09:22:32.417Z,5.63
2018-08-06T09:23:32.393Z,11.25
2018-08-06T09:25:25.336Z,11.25
2018-08-06T09:26:25.311Z,11.25
2018-08-06T09:28:18.230Z,11.25
2018-08-06T09:29:18.227Z,11.25
2018-08-06T09:31:11.147Z,11.25
2018-08-06T09:32:11.145Z,11.25
2018-08-06T09:34:04.165Z,11.25
2018-08-06T09:35:04.061Z,11.25
2018-08-06T09:36:56.957Z,11.25
2018-08-06T09:37:56.979Z,11.25
2018-08-06T09:39:49.896Z,11.25
2018-08-06T09:40:49.919Z,5.63
2018-08-06T09:42:43.661Z,11.25
2018-08-06T09:43:43.661Z,5.63
2018-08-06T09:45:36.577Z,5.63
2018-08-06T09:46:36.576Z,5.63
2018-08-06T09:48:29.524Z,0.00
2018-08-06T09:49:29.494Z,0.00
2018-08-06T09:51:22.415Z,0.00
2018-08-06T09:52:22.410Z,0.00
2018-08-06T09:54:15.329Z,0.00
2018-08-06T09:55:15.328Z,0.00
2018-08-06T09:57:08.295Z,0.00
2018-08-06T09:58:08.248Z,0.00
2018-08-06T10:00:01.167Z,5.63
2018-08-06T10:01:01.165Z,5.63
2018-08-06T10:02:54.106Z,5.63
2018-08-06T10:03:54.081Z,5.63
2018-08-06T10:05:47.083Z,5.63
2018-08-06T10:06:47.242Z,5.63
2018-08-06T10:08:39.915Z,5.63
2018-08-06T10:09:39.915Z,5.63
2018-08-06T10:11:32.836Z,5.63
2018-08-06T10:12:32.846Z,5.63
2018-08-06T10:14:25.749Z,5.63
2018-08-06T10:15:25.749Z,5.63
2018-08-06T10:17:18.664Z,5.63
2018-08-06T10:18:18.663Z,5.63
2018-08-06T10:20:11.581Z,0.00
2018-08-06T10:21:11.580Z,0.00
2018-08-06T10:23:04.482Z,0.00
2018-08-06T10:24:04.499Z,0.00
2018-08-06T10:25:57.413Z,5.63
2018-08-06T10:26:57.413Z,5.63
2018-08-06T10:28:50.330Z,5.63
2018-08-06T10:29:50.366Z,5.63
2018-08-06T10:31:43.253Z,5.63
2018-08-06T10:32:43.285Z,5.63
2018-08-06T10:34:36.166Z,11.25
2018-08-06T10:35:36.165Z,11.25
2018-08-06T10:37:29.062Z,5.63
2018-08-06T10:38:29.082Z,5.63
2018-08-06T10:40:22.051Z,5.63
2018-08-06T10:41:21.998Z,5.63
2018-08-06T10:43:14.924Z,11.25
2018-08-06T10:44:14.915Z,5.63
2018-08-06T10:46:07.832Z,5.63
2018-08-06T10:47:07.833Z,5.63
2018-08-06T10:49:00.737Z,5.63
2018-08-06T10:50:00.756Z,5.63
2018-08-06T10:51:53.672Z,5.63
2018-08-06T10:52:53.690Z,5.63
2018-08-06T10:54:46.590Z,5.63
2018-08-06T10:55:46.589Z,5.63
2018-08-06T10:57:39.517Z,5.63
2018-08-06T10:58:39.515Z,5.63
2018-08-06T11:00:32.435Z,5.63
2018-08-06T11:01:32.431Z,5.63
2018-08-06T11:03:25.349Z,5.63
2018-08-06T11:04:25.348Z,5.63
2018-08-06T11:06:18.266Z,5.63
2018-08-06T11:07:18.266Z,5.63
2018-08-06T11:09:11.186Z,5.63
2018-08-06T11:10:11.182Z,5.63
2018-08-06T11:12:04.101Z,5.63
2018-08-06T11:13:04.101Z,11.25
2018-08-06T11:14:57.051Z,11.25
2018-08-06T11:15:57.020Z,11.25
2018-08-06T11:17:49.933Z,5.63
2018-08-06T11:18:49.932Z,5.63
2018-08-06T11:20:42.853Z,11.25
2018-08-06T11:21:42.849Z,11.25
2018-08-06T11:23:35.770Z,11.25
2018-08-06T11:24:35.769Z,11.25
2018-08-06T11:26:28.687Z,11.25
2018-08-06T11:27:28.686Z,11.25
2018-08-06T11:29:21.603Z,11.25
2018-08-06T11:30:21.602Z,11.25
2018-08-06T11:32:14.518Z,11.25
2018-08-06T11:33:14.519Z,11.25
2018-08-06T11:35:07.435Z,11.25
2018-08-06T11:36:07.435Z,11.25
2018-08-06T11:38:00.357Z,11.25
2018-08-06T11:39:00.357Z,11.25
2018-08-06T11:40:53.481Z,11.25
2018-08-06T11:41:53.521Z,11.25
2018-08-06T11:43:46.419Z,5.63
2018-08-06T11:44:46.419Z,5.63
2018-08-06T11:46:39.337Z,5.63
2018-08-06T11:47:39.338Z,5.63
2018-08-06T11:49:32.256Z,5.63
2018-08-06T11:50:32.255Z,5.63
2018-08-06T11:52:25.173Z,5.63
2018-08-06T11:53:25.171Z,5.63
2018-08-06T11:55:18.355Z,11.25
2018-08-06T11:56:18.316Z,5.63
2018-08-06T11:58:11.212Z,5.63
2018-08-06T11:59:11.259Z,5.63
2018-08-06T12:01:04.148Z,5.63
2018-08-06T12:02:04.147Z,5.63
2018-08-06T12:03:57.064Z,5.63
2018-08-06T12:04:57.100Z,5.63
2018-08-06T12:06:49.959Z,5.63
2018-08-06T12:07:49.979Z,5.63
2018-08-06T12:09:42.900Z,11.25
2018-08-06T12:10:42.896Z,11.25
2018-08-06T12:12:35.816Z,11.25
2018-08-06T12:13:35.892Z,11.25
2018-08-06T12:15:28.730Z,5.63
2018-08-06T12:16:28.729Z,11.25
2018-08-06T12:18:21.645Z,11.25
2018-08-06T12:19:21.671Z,11.25
2018-08-06T12:21:14.562Z,11.25
2018-08-06T12:22:14.575Z,5.63
2018-08-06T12:24:07.493Z,5.63
2018-08-06T12:25:07.489Z,5.63
2018-08-06T12:27:00.623Z,5.63
2018-08-06T12:28:00.622Z,11.25
2018-08-06T12:29:53.540Z,11.25
2018-08-06T12:30:53.539Z,11.25
2018-08-06T12:32:46.478Z,11.25
2018-08-06T12:33:46.457Z,11.25
2018-08-06T12:35:39.373Z,11.25
2018-08-06T12:36:39.372Z,11.25
2018-08-06T12:38:32.291Z,11.25
2018-08-06T12:39:32.289Z,11.25
2018-08-06T12:41:25.184Z,5.63
2018-08-06T12:42:25.206Z,5.63
2018-08-06T12:44:18.124Z,5.63
2018-08-06T12:45:18.124Z,5.63
2018-08-06T12:47:11.039Z,5.63
2018-08-06T12:48:11.039Z,5.63
2018-08-06T12:50:04.042Z,5.63
2018-08-06T12:51:03.980Z,5.63
2018-08-06T12:52:56.920Z,5.63
2018-08-06T12:53:56.900Z,5.63
2018-08-06T12:55:49.791Z,5.63
2018-08-06T12:56:49.789Z,5.63
2018-08-06T12:58:42.706Z,5.63
2018-08-06T12:59:42.706Z,5.63
2018-08-06T13:01:35.848Z,11.25
2018-08-06T13:02:35.846Z,11.25
2018-08-06T13:04:28.762Z,11.25
2018-08-06T13:05:28.761Z,5.63
2018-08-06T13:07:21.678Z,5.63
2018-08-06T13:08:21.680Z,5.63
2018-08-06T13:10:14.594Z,5.63
2018-08-06T13:11:14.593Z,5.63
2018-08-06T13:13:07.547Z,5.63
2018-08-06T13:14:07.511Z,5.63
2018-08-06T13:16:00.513Z,5.63
2018-08-06T13:17:00.494Z,5.63
2018-08-06T13:18:53.321Z,5.63
2018-08-06T13:19:53.371Z,5.63
2018-08-06T13:21:46.346Z,5.63
2018-08-06T13:22:46.259Z,5.63
2018-08-06T13:24:39.175Z,11.25
2018-08-06T13:25:39.228Z,5.63
2018-08-06T13:27:32.092Z,5.63
2018-08-06T13:28:32.091Z,5.63
2018-08-06T13:30:25.028Z,5.63
2018-08-06T13:31:25.093Z,5.63
2018-08-06T13:33:17.937Z,5.63
2018-08-06T13:34:17.960Z,5.63
2018-08-06T13:36:10.904Z,11.25
2018-08-06T13:37:10.873Z,11.25
2018-08-06T13:39:03.816Z,11.25
2018-08-06T13:40:03.789Z,11.25
2018-08-06T13:41:56.719Z,11.25
2018-08-06T13:42:56.739Z,5.63
2018-08-06T13:44:49.673Z,5.63
2018-08-06T13:45:49.673Z,5.63
2018-08-06T13:47:42.586Z,5.63
2018-08-06T13:48:42.585Z,5.63
2018-08-06T13:50:35.500Z,5.63
2018-08-06T13:51:35.502Z,5.63
2018-08-06T13:53:28.646Z,0.00
2018-08-06T13:54:28.644Z,5.63
2018-08-06T13:56:21.561Z,5.63
2018-08-06T13:57:21.559Z,5.63
2018-08-06T13:59:14.551Z,5.63
2018-08-06T14:00:14.477Z,5.63
2018-08-06T14:02:07.393Z,5.63
2018-08-06T14:03:07.392Z,5.63
2018-08-06T14:05:00.308Z,5.63
2018-08-06T14:06:00.307Z,5.63
2018-08-06T14:07:53.248Z,5.63
2018-08-06T14:08:53.224Z,5.63
2018-08-06T14:10:46.120Z,5.63
2018-08-06T14:11:46.140Z,5.63
2018-08-06T14:13:39.056Z,5.63
2018-08-06T14:14:39.056Z,5.63
2018-08-06T14:16:31.972Z,5.63
2018-08-06T14:17:31.973Z,5.63
2018-08-06T14:19:25.097Z,5.63
2018-08-06T14:20:25.120Z,5.63
2018-08-06T14:22:18.064Z,5.63
2018-08-06T14:23:18.061Z,5.63
2018-08-06T14:25:10.980Z,5.63
2018-08-06T14:26:10.976Z,0.00
2018-08-06T14:28:03.892Z,0.00
2018-08-06T14:29:03.893Z,0.00
2018-08-06T14:30:56.809Z,0.00
2018-08-06T14:31:56.826Z,0.00
2018-08-06T14:33:49.727Z,0.00
2018-08-06T14:34:49.724Z,0.00
2018-08-06T14:36:42.677Z,0.00
2018-08-06T14:37:42.676Z,0.00
2018-08-06T14:39:35.681Z,0.00
2018-08-06T14:40:35.593Z,0.00
2018-08-06T14:42:28.510Z,0.00
2018-08-06T14:43:28.508Z,0.00
2018-08-06T14:45:21.448Z,0.00
2018-08-06T14:46:21.424Z,5.63
2018-08-06T14:48:14.343Z,5.63
2018-08-06T14:49:14.343Z,0.00
2018-08-06T14:50:14.369Z,0.00
2018-08-06T14:51:14.395Z,0.00
2018-08-06T14:52:14.521Z,5.63
2018-08-06T14:53:14.449Z,5.63
2018-08-06T14:54:14.478Z,5.63
2018-08-06T14:55:14.503Z,5.63
2018-08-06T14:56:14.531Z,5.63
2018-08-06T14:57:14.558Z,5.63
2018-08-06T14:58:14.586Z,5.63
2018-08-06T14:59:14.626Z,5.63
2018-08-06T15:00:14.640Z,5.63
2018-08-06T15:01:14.674Z,5.63